Time;durP1;ratioP1;P1;durP2;ratioP2;P2;SDS_P1;SDS_P2;PMS_P1;PMS_P2;Temp;Humidity;BMP_temperature;BMP_pressure;BME280_temperature;BME280_humidity;BME280_pressure;Samples;Min_cycle;Max_cycle;Signal;HPM_P1;HPM_P2
2022/06/30 07:25:11;;;;;;;35.85;9.45;;;33.70;99.90;;;;;;6231403;22;20024;-89
2022/06/30 07:27:38;;;;;;;32.42;8.73;;;34.20;99.90;;;;;;6233759;22;20003;-91
2022/06/30 07:30:06;;;;;;;32.17;8.98;;;34.80;99.90;;;;;;6234164;22;20333;-91
2022/06/30 07:32:33;;;;;;;37.17;8.68;;;35.60;99.90;;;;;;6234634;22;20011;-90
2022/06/30 07:35:00;;;;;;;36.05;9.40;;;35.20;99.90;;;;;;6234054;22;20000;-91
2022/06/30 07:37:27;;;;;;;34.00;9.52;;;34.60;99.90;;;;;;6201276;23;20334;-89
2022/06/30 07:39:54;;;;;;;29.08;8.05;;;34.50;99.90;;;;;;6202583;23;20012;-90
2022/06/30 07:42:21;;;;;;;38.05;8.55;;;34.60;99.90;;;;;;6230036;23;20008;-91
2022/06/30 07:44:47;;;;;;;35.65;9.15;;;33.70;99.90;;;;;;6209029;23;20004;-92
2022/06/30 07:47:14;;;;;;;28.35;8.52;;;33.30;99.90;;;;;;6229754;23;20079;-90
2022/06/30 07:49:41;;;;;;;36.83;10.27;;;34.10;99.90;;;;;;6202368;23;20016;-91
2022/06/30 07:52:08;;;;;;;37.45;9.55;;;34.60;99.90;;;;;;6207111;23;20011;-91
2022/06/30 07:54:38;;;;;;;34.92;9.85;;;34.60;99.90;;;;;;6231984;23;20012;-92
2022/06/30 07:57:05;;;;;;;27.25;8.57;;;33.80;99.90;;;;;;6173807;23;20085;-91
2022/06/30 07:59:32;;;;;;;29.08;8.45;;;33.80;99.90;;;;;;6204712;23;20007;-92
2022/06/30 08:02:00;;;;;;;32.13;8.00;;;33.80;99.90;;;;;;6228517;23;20015;-91
2022/06/30 08:04:28;;;;;;;30.80;9.07;;;33.70;99.90;;;;;;6205737;23;20011;-92
2022/06/30 08:06:54;;;;;;;30.67;9.18;;;34.00;99.90;;;;;;6235998;23;20008;-90
2022/06/30 08:09:21;;;;;;;34.10;9.15;;;33.30;99.90;;;;;;6212359;23;20046;-90
2022/06/30 08:11:48;;;;;;;26.02;8.82;;;33.80;99.90;;;;;;6235705;23;20015;-90
2022/06/30 08:14:15;;;;;;;36.80;9.07;;;34.90;99.90;;;;;;6209570;23;19996;-88
2022/06/30 08:16:42;;;;;;;35.92;8.98;;;34.60;99.90;;;;;;6235255;23;20015;-91
2022/06/30 08:19:08;;;;;;;27.60;8.25;;;34.10;99.90;;;;;;6212035;23;20059;-91
2022/06/30 08:21:37;;;;;;;29.30;8.32;;;33.80;99.90;;;;;;6233029;23;20012;-90
2022/06/30 08:24:04;;;;;;;31.73;8.48;;;33.30;99.90;;;;;;6181100;23;20107;-91
2022/06/30 08:26:31;;;;;;;34.42;8.60;;;33.30;99.90;;;;;;6225265;23;20008;-91
2022/06/30 08:28:58;;;;;;;32.58;7.78;;;33.40;99.90;;;;;;6229670;23;20009;-90
2022/06/30 08:31:25;;;;;;;28.83;7.70;;;33.80;99.90;;;;;;6204855;23;20091;-91
2022/06/30 08:33:54;;;;;;;25.73;7.32;;;33.00;99.90;;;;;;6207089;23;20005;-90
2022/06/30 08:36:21;;;;;;;29.35;6.30;;;32.30;99.90;;;;;;6202838;23;20454;-91
2022/06/30 08:38:49;;;;;;;28.90;6.55;;;32.30;99.90;;;;;;6227300;23;20016;-91
2022/06/30 08:44:02;;;;;;;28.92;6.63;;;32.90;99.90;;;;;;6230598;23;20012;-90
2022/06/30 08:46:39;;;;;;;38.03;6.55;;;32.70;99.90;;;;;;6232795;23;20005;-91
2022/06/30 08:49:08;;;;;;;33.35;7.47;;;32.60;99.90;;;;;;6233257;23;20016;-92
2022/06/30 08:51:36;;;;;;;28.70;6.60;;;33.40;99.90;;;;;;6201741;23;20099;-91
2022/06/30 08:54:03;;;;;;;39.10;8.45;;;33.50;99.90;;;;;;6227115;23;20180;-91
2022/06/30 08:56:34;;;;;;;30.13;7.78;;;33.50;99.90;;;;;;6202293;23;20501;-92
2022/06/30 08:59:05;;;;;;;28.38;7.93;;;33.70;99.90;;;;;;6227005;23;20430;-92
2022/06/30 09:01:32;;;;;;;30.02;7.57;;;34.30;99.90;;;;;;6226080;23;20067;-91
2022/06/30 09:03:59;;;;;;;32.00;7.22;;;34.20;99.90;;;;;;6204374;23;20008;-90
2022/06/30 09:06:26;;;;;;;26.20;7.05;;;34.50;99.90;;;;;;6202617;23;20016;-91
2022/06/30 09:08:53;;;;;;;32.70;7.90;;;33.90;99.90;;;;;;6206970;23;20005;-90
2022/06/30 09:11:20;;;;;;;30.65;7.80;;;33.70;99.90;;;;;;6228954;23;20008;-91
2022/06/30 09:13:49;;;;;;;24.92;6.90;;;33.90;99.90;;;;;;6198787;23;20000;-91
2022/06/30 09:16:19;;;;;;;40.28;7.93;;;33.50;99.90;;;;;;6207259;23;20020;-91
2022/06/30 09:18:46;;;;;;;30.67;7.40;;;32.70;99.90;;;;;;6203546;23;20032;-91
2022/06/30 09:21:22;;;;;;;40.25;7.00;;;32.60;99.90;;;;;;6230987;23;20072;-91
2022/06/30 09:24:21;;;;;;;26.02;6.53;;;33.10;99.90;;;;;;6209030;23;20015;-90
2022/06/30 09:26:48;;;;;;;41.20;7.57;;;34.10;99.90;;;;;;6203506;23;20017;-91
2022/06/30 09:29:14;;;;;;;34.88;8.07;;;34.20;99.90;;;;;;6202747;23;20016;-90
2022/06/30 09:31:43;;;;;;;47.00;7.50;;;34.50;99.90;;;;;;6203825;23;20012;-92
2022/06/30 09:34:21;;;;;;;28.65;8.23;;;34.30;99.90;;;;;;6228006;23;20001;-91
2022/06/30 09:36:54;;;;;;;28.98;6.57;;;33.70;99.90;;;;;;6231241;23;20009;-90
2022/06/30 09:39:22;;;;;;;;;;;33.10;99.90;;;;;;6226678;23;20008;-91
2022/06/30 09:41:51;;;;;;;31.90;7.00;;;32.20;99.90;;;;;;6196977;23;19900;-90
2022/06/30 09:44:27;;;;;;;28.48;5.95;;;32.10;99.90;;;;;;6222092;23;20016;-92
2022/06/30 09:47:10;;;;;;;30.23;4.80;;;32.30;99.90;;;;;;6218508;23;20066;-91
2022/06/30 09:49:42;;;;;;;27.95;5.55;;;32.30;99.90;;;;;;6220794;23;20434;-90
2022/06/30 09:52:22;;;;;;;40.03;7.57;;;32.50;99.90;;;;;;6224114;23;20020;-89
2022/06/30 09:55:06;;;;;;;36.53;6.43;;;32.40;99.90;;;;;;6199893;23;20004;-90
2022/06/30 09:57:43;;;;;;;38.50;7.13;;;31.40;99.90;;;;;;6221984;23;20013;-90
2022/06/30 10:00:18;;;;;;;37.25;6.25;;;31.60;99.90;;;;;;6199559;23;20015;-89
2022/06/30 10:02:49;;;;;;;29.70;6.78;;;32.20;99.90;;;;;;6198038;23;20020;-90
2022/06/30 10:05:18;;;;;;;33.90;6.15;;;32.00;99.90;;;;;;6195871;23;20028;-90
2022/06/30 10:07:46;;;;;;;36.83;7.07;;;31.60;99.90;;;;;;6195652;23;20091;-90
2022/06/30 10:10:15;;;;;;;28.77;6.28;;;31.90;99.90;;;;;;6217363;23;20450;-90
2022/06/30 10:12:46;;;;;;;31.08;7.43;;;32.50;99.90;;;;;;6192369;23;20035;-89
2022/06/30 10:15:14;;;;;;;33.60;5.85;;;33.20;99.90;;;;;;6194371;23;20016;-92
2022/06/30 10:17:52;;;;;;;37.60;6.93;;;32.50;99.90;;;;;;6194167;23;20027;-91
2022/06/30 10:20:20;;;;;;;35.17;7.07;;;32.10;99.90;;;;;;6192408;23;20020;-90
2022/06/30 10:22:47;;;;;;;32.83;7.00;;;31.70;99.90;;;;;;6216556;23;20482;-90
2022/06/30 10:25:16;;;;;;;27.48;6.13;;;31.90;99.90;;;;;;6191423;23;20462;-90
2022/06/30 10:27:45;;;;;;;28.70;6.65;;;31.90;99.90;;;;;;6193413;23;20115;-91
2022/06/30 10:30:16;;;;;;;30.48;7.00;;;31.90;99.90;;;;;;6192229;23;20060;-91
2022/06/30 10:33:01;;;;;;;40.92;7.63;;;31.80;99.90;;;;;;6192455;23;20091;-90
2022/06/30 10:35:51;;;;;;;35.05;6.80;;;31.50;99.90;;;;;;6191499;23;20004;-91
2022/06/30 10:38:31;;;;;;;33.85;7.85;;;31.60;99.90;;;;;;6191450;23;20099;-91
2022/06/30 10:41:12;;;;;;;31.35;6.85;;;31.50;99.90;;;;;;6219071;23;20019;-91
2022/06/30 10:44:15;;;;;;;33.05;6.35;;;31.60;99.90;;;;;;6192610;23;20009;-91
2022/06/30 10:46:48;;;;;;;36.10;6.13;;;32.30;99.90;;;;;;6191937;23;20008;-91
2022/06/30 10:49:15;;;;;;;41.55;7.25;;;31.60;99.90;;;;;;6191173;23;20051;-91
2022/06/30 10:51:46;;;;;;;29.25;5.75;;;31.50;99.90;;;;;;6191666;23;20004;-91
2022/06/30 10:54:32;;;;;;;33.03;6.32;;;31.40;99.90;;;;;;6191531;23;20343;-91
2022/06/30 10:57:01;;;;;;;33.53;6.32;;;31.40;99.90;;;;;;6216487;23;20011;-90
2022/06/30 10:59:36;;;;;;;30.00;5.75;;;31.60;99.90;;;;;;6191770;23;20001;-92
2022/06/30 11:02:14;;;;;;;24.83;5.72;;;31.90;99.90;;;;;;6216699;23;20047;-92
2022/06/30 11:04:47;;;;;;;36.50;6.13;;;31.80;99.90;;;;;;6192369;23;20091;-90
2022/06/30 11:07:19;;;;;;;35.42;6.90;;;31.80;99.90;;;;;;6191890;23;20013;-91
2022/06/30 11:09:55;;;;;;;34.10;6.80;;;32.20;99.90;;;;;;6191843;23;20016;-92
2022/06/30 11:12:42;;;;;;;32.97;6.05;;;32.00;99.90;;;;;;6191885;23;20047;-92
2022/06/30 11:15:10;;;;;;;36.63;6.10;;;31.60;99.90;;;;;;6205773;23;20012;-90
2022/06/30 11:17:39;;;;;;;36.40;7.30;;;31.40;99.90;;;;;;6206385;23;20008;-90
2022/06/30 11:20:12;;;;;;;36.38;5.85;;;31.40;99.90;;;;;;6197886;23;20004;-91
2022/06/30 11:22:40;;;;;;;28.60;6.00;;;31.50;99.90;;;;;;6221333;23;20031;-91
2022/06/30 11:28:05;;;;;;;28.60;5.93;;;31.80;99.90;;;;;;6221915;23;20013;-92
2022/06/30 11:30:35;;;;;;;35.70;6.10;;;32.40;99.90;;;;;;6217072;23;20024;-92
2022/06/30 11:33:08;;;;;;;30.60;5.28;;;32.80;99.90;;;;;;6191357;23;20001;-91
2022/06/30 11:35:38;;;;;;;39.20;5.90;;;32.50;99.90;;;;;;6191992;23;20013;-92
2022/06/30 11:38:06;;;;;;;37.22;6.22;;;32.30;99.90;;;;;;6191791;23;20005;-92
2022/06/30 11:40:33;;;;;;;30.73;6.00;;;32.20;99.90;;;;;;6216254;23;20019;-92
2022/06/30 11:43:00;;;;;;;34.45;6.43;;;32.50;99.90;;;;;;6191403;23;20008;-92
2022/06/30 11:45:29;;;;;;;32.53;5.85;;;32.90;99.90;;;;;;6192326;23;20016;-92
2022/06/30 11:48:08;;;;;;;29.60;5.80;;;32.50;99.90;;;;;;6192209;23;20015;-91
2022/06/30 11:50:34;;;;;;;40.08;7.07;;;32.70;99.90;;;;;;6219139;23;20020;-93
2022/06/30 11:53:02;;;;;;;32.63;6.93;;;32.70;99.90;;;;;;6194765;23;20020;-93
2022/06/30 11:55:40;;;;;;;28.65;5.38;;;32.90;99.90;;;;;;6195452;23;20439;-92
2022/06/30 11:58:06;;;;;;;32.83;6.00;;;31.80;99.90;;;;;;6194044;23;20028;-89
2022/06/30 12:00:36;;;;;;;28.10;6.75;;;31.60;99.90;;;;;;6192833;23;20032;-94
2022/06/30 12:03:04;;;;;;;30.73;5.97;;;31.90;99.90;;;;;;6220139;23;20342;-93
2022/06/30 12:05:36;;;;;;;23.73;6.32;;;31.60;99.90;;;;;;6194412;23;20024;-93
2022/06/30 12:08:04;;;;;;;42.83;7.20;;;31.70;99.90;;;;;;6195048;23;20070;-90
2022/06/30 12:10:31;;;;;;;31.23;6.07;;;31.50;99.90;;;;;;6196197;23;20028;-91
2022/06/30 12:12:58;;;;;;;32.97;6.55;;;31.80;99.90;;;;;;6194361;23;20000;-93
2022/06/30 12:15:25;;;;;;;31.27;5.85;;;31.80;99.90;;;;;;6195289;23;20486;-91
2022/06/30 12:18:03;;;;;;;29.77;4.90;;;31.70;99.90;;;;;;6216576;23;20446;-91
2022/06/30 12:20:31;;;;;;;30.58;6.30;;;31.90;99.90;;;;;;6215517;23;20008;-89
2022/06/30 12:22:57;;;;;;;32.42;5.75;;;32.30;99.90;;;;;;6190267;23;20009;-90
2022/06/30 12:25:24;;;;;;;37.95;7.38;;;32.50;99.90;;;;;;6190666;23;20024;-90
2022/06/30 12:27:53;;;;;;;28.38;5.88;;;32.00;99.90;;;;;;6190375;23;20031;-91
2022/06/30 12:30:37;;;;;;;27.13;6.40;;;31.90;99.90;;;;;;6215509;23;20091;-90
2022/06/30 12:33:09;;;;;;;27.05;6.63;;;31.60;99.90;;;;;;6215644;23;20009;-91
2022/06/30 12:35:38;;;;;;;30.85;6.05;;;31.40;99.90;;;;;;6215660;23;20051;-91
2022/06/30 12:38:22;;;;;;;38.97;6.38;;;31.70;99.90;;;;;;6190392;23;20078;-91
2022/06/30 12:40:49;;;;;;;33.53;6.05;;;31.80;99.90;;;;;;6215501;23;20012;-91
2022/06/30 12:43:17;;;;;;;29.75;7.70;;;31.60;99.90;;;;;;6190814;23;20004;-90
2022/06/30 12:45:55;;;;;;;39.20;6.35;;;31.70;99.90;;;;;;6191080;23;20343;-91
2022/06/30 12:48:50;;;;;;;34.20;6.22;;;31.90;99.90;;;;;;6191794;23;20034;-91
2022/06/30 12:51:32;;;;;;;32.80;6.35;;;32.10;99.90;;;;;;6216614;23;20390;-89
2022/06/30 12:54:04;;;;;;;28.35;5.78;;;32.10;99.90;;;;;;6203612;23;19996;-90
2022/06/30 12:56:32;;;;;;;28.15;7.20;;;32.30;99.90;;;;;;6211232;23;20072;-92
2022/06/30 12:59:11;;;;;;;25.30;5.60;;;32.60;99.90;;;;;;6213073;23;20024;-91
2022/06/30 13:01:43;;;;;;;34.05;5.63;;;32.30;99.90;;;;;;6260890;23;20068;-89
2022/06/30 13:04:19;;;;;;;26.67;5.28;;;32.10;99.90;;;;;;6205880;23;20454;-90
2022/06/30 13:06:48;;;;;;;24.85;6.07;;;32.10;99.90;;;;;;6226576;23;20009;-90
2022/06/30 13:09:17;;;;;;;28.55;6.43;;;31.80;99.90;;;;;;6229874;23;20005;-89
2022/06/30 13:11:52;;;;;;;31.63;5.97;;;31.70;99.90;;;;;;6220428;23;20099;-91
2022/06/30 13:14:28;;;;;;;30.77;6.15;;;31.80;99.90;;;;;;6220859;23;20000;-92
2022/06/30 13:16:56;;;;;;;33.22;6.18;;;31.70;99.90;;;;;;6204074;23;20009;-90
2022/06/30 13:19:38;;;;;;;40.45;6.85;;;31.60;99.90;;;;;;6154866;23;20013;-91
2022/06/30 13:22:08;;;;;;;29.73;5.80;;;31.50;99.90;;;;;;6222750;23;20005;-91
2022/06/30 13:24:35;;;;;;;30.77;5.35;;;31.60;99.90;;;;;;6201617;23;20080;-88
2022/06/30 13:27:06;;;;;;;40.42;5.90;;;31.90;99.90;;;;;;6198196;23;20016;-89
2022/06/30 13:29:34;;;;;;;36.60;5.88;;;31.70;99.90;;;;;;6171966;23;20019;-89
2022/06/30 13:32:02;;;;;;;37.50;6.63;;;31.90;99.90;;;;;;6197272;23;20442;-88
2022/06/30 13:34:30;;;;;;;32.45;6.28;;;31.90;99.90;;;;;;6222864;23;20013;-87
2022/06/30 13:37:09;;;;;;;26.13;6.22;;;32.00;99.90;;;;;;6193312;23;20009;-88
2022/06/30 13:39:36;;;;;;;33.03;5.93;;;32.40;99.90;;;;;;6197358;23;20005;-87
2022/06/30 13:42:04;;;;;;;33.45;6.25;;;32.10;99.90;;;;;;6220710;23;20248;-88
2022/06/30 13:44:34;;;;;;;40.05;6.75;;;32.20;99.90;;;;;;6193219;23;20009;-88
2022/06/30 13:47:00;;;;;;;38.50;5.75;;;32.10;99.90;;;;;;6218072;23;20012;-89
2022/06/30 13:49:27;;;;;;;22.58;5.97;;;31.80;99.90;;;;;;6193038;23;20423;-88
2022/06/30 13:51:53;;;;;;;37.47;7.38;;;31.80;99.90;;;;;;6193361;23;20181;-87
2022/06/30 13:54:20;;;;;;;30.95;6.38;;;32.00;99.90;;;;;;6195955;23;20008;-88
2022/06/30 13:56:47;;;;;;;29.50;6.07;;;32.20;99.90;;;;;;6201170;23;20008;-89
2022/06/30 13:59:14;;;;;;;30.08;6.80;;;32.60;99.90;;;;;;6201262;23;20004;-90
2022/06/30 14:01:46;;;;;;;32.95;5.18;;;32.40;99.90;;;;;;6204156;23;20023;-88
2022/06/30 14:04:16;;;;;;;27.50;6.13;;;32.00;99.90;;;;;;6227672;23;20009;-92
2022/06/30 14:06:44;;;;;;;26.65;6.15;;;31.80;99.90;;;;;;6201761;23;20059;-90
2022/06/30 14:09:11;;;;;;;32.28;5.47;;;31.70;99.90;;;;;;6202209;23;20024;-89
2022/06/30 14:11:37;;;;;;;37.08;5.95;;;31.60;99.90;;;;;;6227301;23;20068;-88
2022/06/30 14:14:04;;;;;;;30.52;6.35;;;31.30;99.90;;;;;;6202388;23;20423;-88
2022/06/30 14:16:31;;;;;;;32.42;6.63;;;31.30;99.90;;;;;;6227667;23;20015;-91
2022/06/30 14:19:04;;;;;;;38.35;6.57;;;31.60;99.90;;;;;;6205201;23;20004;-90
2022/06/30 14:21:32;;;;;;;35.73;6.57;;;31.50;99.90;;;;;;6200859;23;20012;-90
2022/06/30 14:23:59;;;;;;;35.88;6.03;;;31.70;99.90;;;;;;6199706;23;20247;-91
2022/06/30 14:26:27;;;;;;;38.45;6.57;;;31.70;99.90;;;;;;6219431;23;20025;-89
2022/06/30 14:28:54;;;;;;;35.17;6.28;;;31.60;99.90;;;;;;6193906;23;20009;-90
2022/06/30 14:31:21;;;;;;;38.05;5.93;;;31.80;99.90;;;;;;6191899;23;20077;-93
2022/06/30 14:33:48;;;;;;;31.73;5.32;;;31.60;99.90;;;;;;6216657;23;20008;-90
2022/06/30 14:36:14;;;;;;;33.13;6.85;;;31.70;99.90;;;;;;6191869;23;20011;-91
2022/06/30 14:38:41;;;;;;;36.80;7.07;;;31.60;99.90;;;;;;6220443;23;20012;-90
2022/06/30 14:41:08;;;;;;;21.80;5.35;;;31.70;99.90;;;;;;6196317;23;20000;-91
2022/06/30 14:43:35;;;;;;;26.80;6.07;;;31.60;99.90;;;;;;6196129;23;20058;-92
2022/06/30 14:46:02;;;;;;;34.92;6.50;;;31.60;99.90;;;;;;6191047;23;20414;-90
2022/06/30 14:48:29;;;;;;;28.17;6.60;;;31.70;99.90;;;;;;6191221;23;20008;-90
2022/06/30 14:51:01;;;;;;;39.90;5.90;;;31.80;99.90;;;;;;6191278;23;20020;-91
2022/06/30 14:53:28;;;;;;;27.92;5.35;;;31.40;99.90;;;;;;6187021;23;20087;-90
2022/06/30 14:55:56;;;;;;;35.08;6.32;;;31.50;99.90;;;;;;6191344;23;20433;-93
2022/06/30 14:58:22;;;;;;;35.58;6.18;;;31.80;99.90;;;;;;6215826;23;20038;-90
2022/06/30 15:00:49;;;;;;;39.20;6.70;;;31.50;99.90;;;;;;6191045;23;20005;-91
2022/06/30 15:03:22;;;;;;;24.23;5.65;;;31.50;99.90;;;;;;6216085;23;20008;-90
2022/06/30 15:05:48;;;;;;;36.65;6.20;;;31.50;99.90;;;;;;6216262;23;20024;-92
2022/06/30 15:08:18;;;;;;;29.40;5.15;;;31.70;99.90;;;;;;6191280;23;20004;-90
2022/06/30 15:10:45;;;;;;;25.23;5.10;;;31.60;99.90;;;;;;6218918;23;20044;-90
2022/06/30 15:13:27;;;;;;;31.33;6.60;;;31.40;99.90;;;;;;6192834;23;20501;-91
2022/06/30 15:15:54;;;;;;;31.58;6.47;;;31.30;99.90;;;;;;6190889;23;20350;-91
2022/06/30 15:18:22;;;;;;;41.22;6.00;;;31.20;99.90;;;;;;6190881;23;20009;-90
2022/06/30 15:26:18;;;;;;;25.83;5.97;;;30.80;99.90;;;;;;6215879;23;20020;-90
2022/06/30 15:28:45;;;;;;;28.02;5.50;;;30.90;99.90;;;;;;6191004;23;20005;-91
2022/06/30 15:31:15;;;;;;;36.40;5.78;;;31.00;99.90;;;;;;6215734;23;20106;-91
2022/06/30 15:33:42;;;;;;;32.05;5.88;;;30.80;99.90;;;;;;6191067;23;20013;-91
2022/06/30 15:36:08;;;;;;;33.70;6.13;;;30.60;99.90;;;;;;6191255;23;20008;-91
2022/06/30 15:38:37;;;;;;;26.80;5.53;;;30.70;99.90;;;;;;6191899;23;20005;-90
2022/06/30 15:41:04;;;;;;;24.80;5.20;;;30.60;99.90;;;;;;6217140;23;20012;-90
2022/06/30 15:43:30;;;;;;;29.08;6.57;;;30.90;99.90;;;;;;6161631;23;20005;-89
2022/06/30 15:45:57;;;;;;;29.85;6.85;;;30.90;99.90;;;;;;6160852;23;20088;-90
2022/06/30 15:48:24;;;;;;;39.22;8.75;;;30.90;99.90;;;;;;6160154;23;20449;-90
2022/06/30 15:50:50;;;;;;;36.47;8.25;;;30.70;99.90;;;;;;6160665;23;20103;-91
2022/06/30 15:53:17;;;;;;;42.42;6.18;;;30.60;99.90;;;;;;6164225;23;20001;-90
2022/06/30 15:55:44;;;;;;;32.05;7.03;;;30.40;99.90;;;;;;6162291;23;20112;-90
2022/06/30 15:58:13;;;;;;;29.20;5.53;;;30.40;99.90;;;;;;6160751;23;20005;-90
2022/06/30 16:00:40;;;;;;;33.33;5.55;;;30.50;99.90;;;;;;6159770;23;20013;-89
2022/06/30 16:03:07;;;;;;;25.20;5.50;;;30.40;99.90;;;;;;6160037;23;20189;-90
2022/06/30 16:05:33;;;;;;;28.38;6.20;;;30.40;99.90;;;;;;6160106;23;20482;-91
2022/06/30 16:08:00;;;;;;;37.20;7.13;;;30.30;99.90;;;;;;6159835;23;20032;-89
2022/06/30 16:10:27;;;;;;;36.42;6.25;;;30.10;99.90;;;;;;6159801;23;20063;-90
2022/06/30 16:12:54;;;;;;;28.65;6.75;;;30.30;99.90;;;;;;6159696;23;20382;-89
2022/06/30 16:15:21;;;;;;;32.30;6.38;;;30.40;99.90;;;;;;6186622;23;20016;-89
2022/06/30 16:18:00;;;;;;;31.48;5.60;;;30.30;99.90;;;;;;6190269;23;20000;-90
2022/06/30 16:20:27;;;;;;;37.08;7.03;;;30.30;99.90;;;;;;6215301;23;20013;-90
2022/06/30 16:22:54;;;;;;;28.67;5.35;;;30.10;99.90;;;;;;6190500;23;20004;-89
2022/06/30 16:25:21;;;;;;;32.50;5.55;;;30.20;99.90;;;;;;6214953;23;20020;-89
2022/06/30 16:27:48;;;;;;;37.55;5.57;;;29.90;99.90;;;;;;6190283;23;20032;-87
2022/06/30 16:30:17;;;;;;;27.73;5.53;;;30.00;99.90;;;;;;6216931;23;20020;-88
2022/06/30 16:32:45;;;;;;;39.33;6.25;;;30.00;99.90;;;;;;6192461;23;20015;-88
2022/06/30 16:35:12;;;;;;;35.08;5.60;;;30.10;99.90;;;;;;6193139;23;20019;-87
2022/06/30 16:37:39;;;;;;;33.67;5.88;;;29.90;99.90;;;;;;6192286;23;20426;-88
2022/06/30 16:40:14;;;;;;;26.65;5.80;;;29.40;99.90;;;;;;6192375;23;20442;-88
2022/06/30 16:42:42;;;;;;;32.60;5.93;;;29.20;99.90;;;;;;6193093;23;20005;-87
2022/06/30 16:45:12;;;;;;;36.20;6.75;;;29.20;99.90;;;;;;6192106;23;20015;-89
2022/06/30 16:47:40;;;;;;;34.45;6.50;;;29.20;99.90;;;;;;6191980;23;20444;-89
2022/06/30 16:50:07;;;;;;;32.17;6.10;;;29.30;99.90;;;;;;6191703;23;20017;-87
2022/06/30 16:52:34;;;;;;;24.65;5.10;;;29.30;99.90;;;;;;6216823;23;20013;-88
2022/06/30 16:55:04;;;;;;;26.60;5.30;;;29.10;99.90;;;;;;6187776;23;20035;-88
2022/06/30 16:57:30;;;;;;;36.78;5.63;;;29.10;99.90;;;;;;6190272;23;20012;-88
2022/06/30 17:00:00;;;;;;;32.65;7.10;;;29.00;99.90;;;;;;6216122;23;20012;-89
2022/06/30 17:02:27;;;;;;;37.60;7.10;;;28.80;99.90;;;;;;6190212;23;20009;-90
2022/06/30 17:04:53;;;;;;;26.92;5.93;;;28.80;99.90;;;;;;6218637;23;20008;-90
2022/06/30 17:07:20;;;;;;;30.23;6.85;;;28.70;99.90;;;;;;6192005;23;20008;-90
2022/06/30 17:09:46;;;;;;;29.92;6.32;;;28.60;99.90;;;;;;6193913;23;20096;-89
2022/06/30 17:12:12;;;;;;;30.17;6.30;;;28.40;99.90;;;;;;6198631;23;20004;-88
2022/06/30 17:14:39;;;;;;;36.92;6.18;;;28.50;99.90;;;;;;6199624;23;20011;-89
2022/06/30 17:17:06;;;;;;;33.05;6.78;;;28.40;99.90;;;;;;6219671;23;20024;-91
2022/06/30 17:19:33;;;;;;;35.92;6.40;;;28.50;99.90;;;;;;6194463;23;20000;-89
2022/06/30 17:21:59;;;;;;;41.10;5.82;;;28.50;99.90;;;;;;6219747;23;20019;-88
2022/06/30 17:24:25;;;;;;;28.30;6.57;;;28.40;99.90;;;;;;6194984;23;20001;-89
2022/06/30 17:26:54;;;;;;;38.00;6.90;;;28.20;99.90;;;;;;6194532;23;20080;-89
2022/06/30 17:29:20;;;;;;;38.20;7.10;;;28.00;99.90;;;;;;6217723;23;20019;-89
2022/06/30 17:31:47;;;;;;;37.47;6.55;;;27.80;99.90;;;;;;6201001;23;20378;-89
2022/06/30 17:34:14;;;;;;;33.97;7.20;;;27.80;99.90;;;;;;6196295;23;20012;-88
2022/06/30 17:36:40;;;;;;;42.13;6.57;;;27.80;99.90;;;;;;6192579;23;20430;-89
2022/06/30 17:39:07;;;;;;;36.15;6.68;;;27.90;99.90;;;;;;6192312;23;20008;-89
2022/06/30 17:41:33;;;;;;;21.95;6.10;;;27.80;99.90;;;;;;6217774;23;20012;-89
2022/06/30 17:44:00;;;;;;;50.70;8.68;;;27.80;99.90;;;;;;6194833;23;20001;-89
2022/06/30 17:46:26;;;;;;;41.28;6.80;;;27.80;99.90;;;;;;6191872;23;20311;-89
2022/06/30 17:48:53;;;;;;;37.40;7.32;;;27.70;99.90;;;;;;6191638;23;20015;-89
2022/06/30 17:51:21;;;;;;;33.20;7.40;;;27.60;99.90;;;;;;6191904;23;20027;-89
2022/06/30 17:53:48;;;;;;;32.40;7.68;;;27.50;99.90;;;;;;6192047;23;20004;-89
2022/06/30 17:56:18;;;;;;;34.50;7.43;;;27.50;99.90;;;;;;6217848;23;20012;-88
2022/06/30 17:58:45;;;;;;;34.42;6.15;;;27.50;99.90;;;;;;6192014;23;20087;-89
2022/06/30 18:01:11;;;;;;;33.13;7.10;;;27.40;99.90;;;;;;6196877;23;20077;-90
2022/06/30 18:03:37;;;;;;;37.83;7.63;;;27.30;99.90;;;;;;6196968;23;20435;-90
2022/06/30 18:06:04;;;;;;;34.13;7.35;;;27.20;99.90;;;;;;6219966;23;20008;-91
2022/06/30 18:11:20;;;;;;;34.70;8.05;;;27.10;99.90;;;;;;6198523;23;20029;-88
2022/06/30 18:13:49;;;;;;;31.83;7.18;;;27.10;99.90;;;;;;6200058;23;20008;-89
2022/06/30 18:16:18;;;;;;;38.00;8.02;;;27.20;99.90;;;;;;6218934;23;20066;-88
2022/06/30 18:18:48;;;;;;;46.20;7.45;;;27.20;99.90;;;;;;6197725;23;19992;-89
2022/06/30 18:21:15;;;;;;;39.65;7.25;;;27.20;99.90;;;;;;6217999;23;20078;-88
2022/06/30 18:23:42;;;;;;;34.83;6.53;;;27.10;99.90;;;;;;6192649;23;20008;-89
2022/06/30 18:26:10;;;;;;;49.33;8.02;;;27.00;99.90;;;;;;6217428;23;20020;-89
2022/06/30 18:28:38;;;;;;;35.45;7.35;;;27.00;99.90;;;;;;6193772;23;20008;-88
2022/06/30 18:31:08;;;;;;;42.13;9.55;;;26.90;99.90;;;;;;6217514;23;20028;-88
2022/06/30 18:33:35;;;;;;;36.78;8.45;;;26.90;99.90;;;;;;6192746;23;20040;-88
2022/06/30 18:36:03;;;;;;;33.90;7.10;;;26.80;99.90;;;;;;6219366;23;20008;-91
2022/06/30 18:38:29;;;;;;;38.85;7.95;;;26.80;99.90;;;;;;6199962;23;20001;-89
2022/06/30 18:41:23;;;;;;;36.30;7.97;;;26.70;99.90;;;;;;6199490;23;20004;-88
2022/06/30 18:43:42;;;;;;;40.00;7.63;;;26.70;99.90;;;;;;6226981;23;20011;-90
2022/06/30 18:46:09;;;;;;;40.08;7.35;;;26.70;99.90;;;;;;6202573;23;20027;-90
2022/06/30 18:48:36;;;;;;;37.50;8.30;;;26.70;99.90;;;;;;6200394;23;20013;-91
2022/06/30 18:51:03;;;;;;;42.47;8.68;;;26.80;99.90;;;;;;6203085;23;20072;-90
2022/06/30 18:53:29;;;;;;;41.53;7.95;;;26.80;99.90;;;;;;6203449;23;20012;-90
2022/06/30 18:55:56;;;;;;;33.38;7.93;;;26.80;99.90;;;;;;6223911;23;20442;-90
2022/06/30 18:58:22;;;;;;;39.97;8.82;;;26.80;99.90;;;;;;6204293;23;20007;-90
2022/06/30 19:00:50;;;;;;;44.13;7.45;;;26.70;99.90;;;;;;6229257;23;20011;-90
2022/06/30 19:03:19;;;;;;;38.40;8.13;;;26.50;99.90;;;;;;6202621;23;20028;-90
2022/06/30 19:05:46;;;;;;;39.05;8.68;;;26.60;99.90;;;;;;6194548;23;20012;-91
2022/06/30 19:08:12;;;;;;;32.00;7.82;;;26.50;99.90;;;;;;6193684;23;20430;-90
2022/06/30 19:10:39;;;;;;;39.97;7.90;;;26.50;99.90;;;;;;6218911;23;20137;-90
2022/06/30 19:13:05;;;;;;;37.83;8.55;;;26.50;99.90;;;;;;6191801;23;20005;-90
2022/06/30 19:15:32;;;;;;;31.73;7.38;;;26.40;99.90;;;;;;6191986;23;20041;-90
2022/06/30 19:17:58;;;;;;;36.45;8.00;;;26.40;99.90;;;;;;6191583;23;20007;-88
2022/06/30 19:20:25;;;;;;;35.92;7.45;;;26.40;99.90;;;;;;6218090;23;20004;-89
2022/06/30 19:22:51;;;;;;;38.92;8.18;;;26.30;99.90;;;;;;6192133;23;20000;-90
2022/06/30 19:25:18;;;;;;;35.72;8.18;;;26.40;99.90;;;;;;6193029;23;20019;-91
2022/06/30 19:27:45;;;;;;;37.88;7.65;;;26.40;99.90;;;;;;6195783;23;20016;-90
2022/06/30 19:30:12;;;;;;;44.05;8.43;;;26.30;99.90;;;;;;6195577;23;20095;-90
2022/06/30 19:32:39;;;;;;;49.60;7.95;;;26.30;99.90;;;;;;6222223;23;20004;-90
2022/06/30 19:35:08;;;;;;;37.97;8.05;;;26.30;99.90;;;;;;6194504;23;20064;-90
2022/06/30 19:37:37;;;;;;;41.58;8.15;;;26.30;99.90;;;;;;6221298;23;20014;-90
2022/06/30 19:40:05;;;;;;;27.42;8.00;;;26.20;99.90;;;;;;6195683;23;20013;-90
2022/06/30 19:42:33;;;;;;;38.35;8.70;;;26.20;99.90;;;;;;6221039;23;20009;-90
2022/06/30 19:45:03;;;;;;;43.20;8.50;;;26.20;99.90;;;;;;6199179;23;20001;-90
2022/06/30 19:47:30;;;;;;;36.70;8.70;;;26.10;99.90;;;;;;6230321;23;20023;-90
2022/06/30 19:49:58;;;;;;;35.78;7.88;;;26.10;99.90;;;;;;6206184;23;20004;-89
2022/06/30 19:52:26;;;;;;;43.25;9.65;;;26.00;99.90;;;;;;6220872;23;20013;-89
2022/06/30 19:54:54;;;;;;;32.83;7.85;;;26.00;99.90;;;;;;6193854;23;20001;-90
2022/06/30 19:57:23;;;;;;;31.83;7.55;;;26.00;99.90;;;;;;6218044;23;20016;-89
2022/06/30 19:59:51;;;;;;;42.47;9.52;;;26.00;99.90;;;;;;6193797;23;20007;-89
2022/06/30 20:02:19;;;;;;;32.40;8.73;;;25.90;99.90;;;;;;6221431;23;20012;-91
2022/06/30 20:05:01;;;;;;;39.20;8.40;;;25.90;99.90;;;;;;6200171;23;20087;-90
2022/06/30 20:13:01;;;;;;;42.50;8.88;;;25.80;99.90;;;;;;6219766;23;20005;-91
2022/06/30 20:15:27;;;;;;;43.63;8.60;;;25.80;99.90;;;;;;6191143;23;20494;-90
2022/06/30 20:17:57;;;;;;;41.47;9.18;;;25.70;99.90;;;;;;6215239;23;20350;-90
2022/06/30 20:20:24;;;;;;;37.17;8.10;;;25.70;99.90;;;;;;6194753;23;20023;-90
2022/06/30 20:22:51;;;;;;;37.63;8.57;;;25.70;99.90;;;;;;6192456;23;20088;-89
2022/06/30 20:25:17;;;;;;;43.85;9.05;;;25.70;99.90;;;;;;6215834;23;20016;-89
2022/06/30 20:27:44;;;;;;;39.92;8.85;;;25.60;99.90;;;;;;6191072;23;20091;-91
2022/06/30 20:30:12;;;;;;;31.85;9.00;;;25.60;99.90;;;;;;6216083;23;20013;-90
2022/06/30 20:32:39;;;;;;;43.05;9.45;;;25.50;99.90;;;;;;6191077;23;20040;-90